createdAt,value
2023-08-14T00:01:57.286Z,1021.71
2023-08-14T00:04:24.102Z,1021.68
2023-08-14T00:06:50.949Z,1021.64
2023-08-14T00:09:17.786Z,1021.67
2023-08-14T00:11:46.034Z,1021.66
2023-08-14T00:14:12.903Z,1021.62
2023-08-14T00:16:39.866Z,1021.57
2023-08-14T00:19:06.686Z,1021.48
2023-08-14T00:21:33.642Z,1021.59
2023-08-14T00:24:00.487Z,1021.73
2023-08-14T00:26:27.432Z,1021.72
2023-08-14T00:28:55.692Z,1021.67
2023-08-14T00:31:22.484Z,1021.77
2023-08-14T00:33:49.424Z,1021.76
2023-08-14T00:36:16.358Z,1021.73
2023-08-14T00:38:43.245Z,1021.69
2023-08-14T00:41:10.056Z,1021.76
2023-08-14T00:43:36.940Z,1021.79
2023-08-14T00:46:06.425Z,1021.81
2023-08-14T00:48:33.588Z,1021.83
2023-08-14T00:51:00.584Z,1021.84
2023-08-14T00:53:29.571Z,1021.98
2023-08-14T00:55:56.953Z,1021.94
2023-08-14T00:58:24.386Z,1021.98
2023-08-14T01:00:51.652Z,1021.92
2023-08-14T01:03:21.469Z,1022.03
2023-08-14T01:05:48.436Z,1021.91
2023-08-14T01:08:15.324Z,1021.96
2023-08-14T01:10:53.712Z,1022.07
2023-08-14T01:13:30.392Z,1021.97
2023-08-14T01:16:01.874Z,1021.96
2023-08-14T01:18:31.840Z,1021.98
2023-08-14T01:21:22.677Z,1022.10
2023-08-14T01:23:53.901Z,1022.12
2023-08-14T01:26:23.609Z,1022.07
2023-08-14T01:28:51.173Z,1022.07
2023-08-14T01:31:18.063Z,1022.10
2023-08-14T01:33:44.874Z,1022.08
2023-08-14T01:36:18.812Z,1022.07
2023-08-14T01:38:56.653Z,1022.14
2023-08-14T01:41:29.596Z,1022.15
2023-08-14T01:43:59.613Z,1022.06
2023-08-14T01:46:27.998Z,1022.03
2023-08-14T01:48:56.887Z,1022.08
2023-08-14T01:51:25.335Z,1022.13
2023-08-14T01:53:52.351Z,1022.13
2023-08-14T01:56:19.149Z,1022.08
2023-08-14T01:58:47.358Z,1022.11
2023-08-14T02:01:14.209Z,1022.09
2023-08-14T02:03:41.176Z,1022.09
2023-08-14T02:06:08.196Z,1022.11
2023-08-14T02:08:35.172Z,1022.16
2023-08-14T02:11:07.293Z,1022.12
2023-08-14T02:13:34.273Z,1022.15
2023-08-14T02:16:03.281Z,1022.19
2023-08-14T02:18:30.132Z,1022.23
2023-08-14T02:20:57.085Z,1022.29
2023-08-14T02:23:24.052Z,1022.18
2023-08-14T02:25:54.611Z,1022.23
2023-08-14T02:28:21.522Z,1022.22
2023-08-14T02:30:48.394Z,1022.15
2023-08-14T02:33:16.562Z,1022.13
2023-08-14T02:35:43.394Z,1022.18
2023-08-14T02:38:10.256Z,1022.08
2023-08-14T02:40:38.838Z,1022.13
2023-08-14T02:43:05.719Z,1022.17
2023-08-14T02:45:32.664Z,1022.21
2023-08-14T02:47:59.665Z,1022.13
2023-08-14T02:50:27.881Z,1022.09
2023-08-14T02:52:54.792Z,1022.24
2023-08-14T02:55:21.767Z,1022.21
2023-08-14T02:57:48.573Z,1022.14
2023-08-14T03:00:15.720Z,1022.08
2023-08-14T03:02:42.703Z,1022.06
2023-08-14T03:05:09.955Z,1022.12
2023-08-14T03:07:38.211Z,1021.95
2023-08-14T03:10:06.162Z,1021.94
2023-08-14T03:12:33.031Z,1022.01
2023-08-14T03:14:59.893Z,1021.93
2023-08-14T03:17:26.725Z,1021.83
2023-08-14T03:19:53.712Z,1021.85
2023-08-14T03:22:20.734Z,1021.83
2023-08-14T03:24:49.142Z,1022.04
2023-08-14T03:27:16.038Z,1021.95
2023-08-14T03:29:42.831Z,1021.89
2023-08-14T03:32:09.701Z,1021.82
2023-08-14T03:34:36.678Z,1021.91
2023-08-14T03:37:03.573Z,1021.89
2023-08-14T03:39:30.435Z,1021.97
2023-08-14T03:41:58.717Z,1021.93
2023-08-14T03:44:25.549Z,1022.03
2023-08-14T03:46:52.405Z,1022.06
2023-08-14T03:49:19.247Z,1022.06
2023-08-14T03:51:46.075Z,1022.15
2023-08-14T03:54:13.089Z,1022.07
2023-08-14T03:56:40.065Z,1022.03
2023-08-14T03:59:08.330Z,1022.16
2023-08-14T04:01:35.218Z,1022.13
2023-08-14T04:04:02.384Z,1022.16
2023-08-14T04:06:29.345Z,1022.07
2023-08-14T04:08:56.201Z,1022.09
2023-08-14T04:11:23.026Z,1022.20
2023-08-14T04:13:49.946Z,1022.19
2023-08-14T04:16:18.320Z,1022.09
2023-08-14T04:18:45.200Z,1022.09
2023-08-14T04:21:12.084Z,1022.01
2023-08-14T04:23:38.918Z,1022.14
2023-08-14T04:26:05.732Z,1022.20
2023-08-14T04:28:32.594Z,1022.21
2023-08-14T04:30:59.444Z,1022.24
2023-08-14T04:33:27.672Z,1022.20
2023-08-14T04:35:54.479Z,1022.20
2023-08-14T04:38:21.408Z,1022.13
2023-08-14T04:40:48.275Z,1022.21
2023-08-14T04:43:15.150Z,1022.06
2023-08-14T04:45:41.958Z,1022.00
2023-08-14T04:48:08.887Z,1022.01
2023-08-14T04:50:37.270Z,1022.05
2023-08-14T04:53:06.618Z,1022.00
2023-08-14T04:55:33.854Z,1022.05
2023-08-14T04:58:00.721Z,1022.08
2023-08-14T05:00:27.888Z,1022.06
2023-08-14T05:02:55.406Z,1022.09
2023-08-14T05:05:22.253Z,1022.05
2023-08-14T05:07:50.656Z,1022.12
2023-08-14T05:10:17.522Z,1022.15
2023-08-14T05:12:44.403Z,1022.25
2023-08-14T05:15:11.866Z,1022.25
2023-08-14T05:17:38.801Z,1022.26
2023-08-14T05:20:06.875Z,1022.34
2023-08-14T05:22:33.797Z,1022.32
2023-08-14T05:25:02.097Z,1022.30
2023-08-14T05:27:28.954Z,1022.28
2023-08-14T05:29:55.994Z,1022.26
2023-08-14T05:32:22.850Z,1022.19
2023-08-14T05:34:49.779Z,1022.21
2023-08-14T05:37:16.607Z,1022.17
2023-08-14T05:39:43.465Z,1021.79
2023-08-14T05:42:11.798Z,1021.40
2023-08-14T05:44:38.647Z,1021.31
2023-08-14T05:47:05.875Z,1021.32
2023-08-14T05:49:32.707Z,1021.34
2023-08-14T05:51:59.608Z,1020.57
2023-08-14T05:54:26.461Z,1020.10
2023-08-14T05:56:53.324Z,1019.76
2023-08-14T05:59:21.612Z,1019.70
2023-08-14T06:01:48.457Z,1019.60
2023-08-14T06:04:15.331Z,1019.63
2023-08-14T06:06:42.180Z,1019.54
2023-08-14T06:09:08.984Z,1019.64
2023-08-14T06:11:36.915Z,1019.42
2023-08-14T06:14:04.055Z,1019.35
2023-08-14T06:16:32.262Z,1019.26
2023-08-14T06:18:59.159Z,1019.22
2023-08-14T06:21:26.047Z,1019.14
2023-08-14T06:23:53.321Z,1019.03
2023-08-14T06:26:20.398Z,1019.09
2023-08-14T06:28:47.248Z,1019.01
2023-08-14T06:31:14.132Z,1019.00
2023-08-14T06:33:42.314Z,1018.84
2023-08-14T06:36:10.121Z,1018.78
2023-08-14T06:38:37.056Z,1018.72
2023-08-14T06:41:03.938Z,1018.66
2023-08-14T06:43:30.792Z,1018.59
2023-08-14T06:45:57.744Z,1018.54
2023-08-14T06:48:24.589Z,1018.39
2023-08-14T06:50:52.905Z,1018.45
2023-08-14T06:53:19.738Z,1018.41
2023-08-14T06:55:47.556Z,1018.43
2023-08-14T06:58:14.536Z,1018.37
2023-08-14T07:00:41.372Z,1018.38
2023-08-14T07:03:08.285Z,1018.41
2023-08-14T07:05:35.217Z,1018.36
2023-08-14T07:08:03.678Z,1018.43
2023-08-14T07:10:30.646Z,1018.29
2023-08-14T07:12:57.509Z,1018.25
2023-08-14T07:15:24.358Z,1018.22
2023-08-14T07:17:51.337Z,1018.16
2023-08-14T07:20:18.482Z,1018.15
2023-08-14T07:22:45.382Z,1018.12
2023-08-14T07:25:13.555Z,1018.06
2023-08-14T07:27:40.440Z,1018.08
2023-08-14T07:30:08.877Z,1018.04
2023-08-14T07:32:35.738Z,1018.04
2023-08-14T07:35:02.929Z,1017.94
2023-08-14T07:37:29.947Z,1017.82
2023-08-14T07:39:56.864Z,1017.81
2023-08-14T07:42:25.252Z,1017.71
2023-08-14T07:44:52.142Z,1017.73
2023-08-14T07:47:18.923Z,1017.72
2023-08-14T07:49:45.772Z,1017.67
2023-08-14T07:52:12.697Z,1017.80
2023-08-14T07:54:39.617Z,1017.79
2023-08-14T07:57:06.592Z,1017.79
2023-08-14T07:59:34.814Z,1017.89
2023-08-14T08:02:01.726Z,1017.95
2023-08-14T08:04:28.639Z,1017.84
2023-08-14T08:06:55.457Z,1017.89
2023-08-14T08:09:22.280Z,1017.76
2023-08-14T08:14:23.254Z,1017.88
2023-08-14T08:16:51.542Z,1017.79
2023-08-14T08:19:18.482Z,1017.82
2023-08-14T08:21:45.602Z,1017.85
2023-08-14T08:24:12.410Z,1017.87
2023-08-14T08:26:39.260Z,1017.76
2023-08-14T08:29:06.070Z,1017.72
2023-08-14T08:31:33.595Z,1017.71
2023-08-14T08:34:01.870Z,1017.58
2023-08-14T08:36:28.792Z,1017.54
2023-08-14T08:38:55.685Z,1017.39
2023-08-14T08:41:25.721Z,1017.43
2023-08-14T08:44:00.305Z,1017.35
2023-08-14T08:46:28.244Z,1017.33
2023-08-14T08:48:55.491Z,1017.27
2023-08-14T08:51:25.090Z,1017.24
2023-08-14T08:53:52.220Z,1017.24
2023-08-14T08:56:19.166Z,1017.09
2023-08-14T08:58:46.047Z,1017.03
2023-08-14T09:01:13.252Z,1016.97
2023-08-14T09:03:40.359Z,1017.04
2023-08-14T09:06:07.231Z,1016.98
2023-08-14T09:08:37.422Z,1017.10
2023-08-14T09:11:04.497Z,1017.04
2023-08-14T09:13:32.663Z,1016.99
2023-08-14T09:16:01.514Z,1017.08
2023-08-14T09:18:28.317Z,1016.98
2023-08-14T09:20:55.474Z,1016.85
2023-08-14T09:23:23.001Z,1016.88
2023-08-14T09:25:51.330Z,1016.88
2023-08-14T09:28:19.019Z,1017.10
2023-08-14T09:30:46.017Z,1016.88
2023-08-14T09:33:13.732Z,1016.70
2023-08-14T09:35:40.928Z,1016.73
2023-08-14T09:38:07.909Z,1016.56
2023-08-14T09:40:34.745Z,1016.58
2023-08-14T09:43:03.133Z,1016.52
2023-08-14T09:45:30.089Z,1016.43
2023-08-14T09:47:59.910Z,1016.39
2023-08-14T09:50:29.124Z,1016.43
2023-08-14T09:52:57.307Z,1016.24
2023-08-14T09:55:25.403Z,1016.18
2023-08-14T09:57:52.492Z,1016.17
2023-08-14T10:00:20.787Z,1016.14
2023-08-14T10:02:49.046Z,1016.05
2023-08-14T10:05:17.576Z,1015.97
2023-08-14T10:07:45.422Z,1015.86
2023-08-14T10:10:13.879Z,1015.90
2023-08-14T10:12:44.970Z,1015.82
2023-08-14T10:15:15.537Z,1015.95
2023-08-14T10:17:56.269Z,1015.85
2023-08-14T10:20:24.533Z,1015.93
2023-08-14T10:22:52.295Z,1015.98
2023-08-14T10:25:20.740Z,1015.95
2023-08-14T10:27:47.986Z,1015.94
2023-08-14T10:30:15.246Z,1015.88
2023-08-14T10:32:42.668Z,1015.76
2023-08-14T10:35:11.067Z,1015.72
2023-08-14T10:37:46.154Z,1015.71
2023-08-14T10:40:20.676Z,1015.65
2023-08-14T10:42:48.697Z,1015.59
2023-08-14T10:45:16.590Z,1015.54
2023-08-14T10:47:44.705Z,1015.59
2023-08-14T10:50:20.858Z,1015.54
2023-08-14T10:52:48.979Z,1015.49
2023-08-14T10:55:17.472Z,1015.43
2023-08-14T10:57:45.967Z,1015.50
2023-08-14T11:00:23.494Z,1015.51
2023-08-14T11:02:51.762Z,1015.50
2023-08-14T11:05:23.268Z,1015.43
2023-08-14T11:07:59.151Z,1015.44
2023-08-14T11:10:26.621Z,1015.48
2023-08-14T11:12:54.479Z,1015.52
2023-08-14T11:15:21.743Z,1015.52
2023-08-14T11:17:49.354Z,1015.50
2023-08-14T11:20:16.469Z,1015.53
2023-08-14T11:22:48.825Z,1015.47
2023-08-14T11:25:17.354Z,1015.47
2023-08-14T11:27:49.945Z,1015.46
2023-08-14T11:30:18.567Z,1015.47
2023-08-14T11:32:45.999Z,1015.42
2023-08-14T11:35:13.524Z,1015.41
2023-08-14T11:37:40.555Z,1015.53
2023-08-14T11:40:10.266Z,1015.49
2023-08-14T11:42:39.737Z,1015.44
2023-08-14T11:45:08.134Z,1015.40
2023-08-14T11:47:36.272Z,1015.49
2023-08-14T11:50:05.400Z,1015.43
2023-08-14T11:52:32.595Z,1015.46
2023-08-14T11:54:59.752Z,1015.40
2023-08-14T11:57:29.867Z,1015.49
2023-08-14T11:59:57.333Z,1015.49
2023-08-14T12:02:24.831Z,1015.44
2023-08-14T12:04:53.120Z,1015.47
2023-08-14T12:07:20.016Z,1015.48
2023-08-14T12:09:46.890Z,1015.40
2023-08-14T12:12:13.834Z,1015.29
2023-08-14T12:14:43.976Z,1015.40
2023-08-14T12:17:16.433Z,1015.36
2023-08-14T12:19:49.888Z,1015.36
2023-08-14T12:22:16.890Z,1015.29
2023-08-14T12:24:44.378Z,1015.36
2023-08-14T12:27:14.820Z,1015.31
2023-08-14T12:29:43.192Z,1015.30
2023-08-14T12:32:10.120Z,1015.27
2023-08-14T12:34:37.555Z,1015.29
2023-08-14T12:37:05.927Z,1015.25
2023-08-14T12:39:32.911Z,1015.30
2023-08-14T12:42:00.521Z,1015.27
2023-08-14T12:44:27.900Z,1015.29
2023-08-14T12:46:56.784Z,1015.22
2023-08-14T12:49:24.224Z,1015.16
2023-08-14T12:51:51.874Z,1015.24
2023-08-14T12:54:18.764Z,1015.30
2023-08-14T12:56:45.710Z,1015.28
2023-08-14T12:59:12.987Z,1015.30
2023-08-14T13:01:39.932Z,1015.39
2023-08-14T13:04:08.307Z,1015.36
2023-08-14T13:06:35.377Z,1015.33
2023-08-14T13:09:02.347Z,1015.38
2023-08-14T13:11:29.177Z,1015.38
2023-08-14T13:13:56.176Z,1015.37
2023-08-14T13:16:23.175Z,1015.36
2023-08-14T13:18:50.094Z,1015.32
2023-08-14T13:21:18.398Z,1015.27
2023-08-14T13:23:45.306Z,1015.27
2023-08-14T13:26:25.755Z,1015.32
2023-08-14T13:28:55.168Z,1015.29
2023-08-14T13:31:22.130Z,1015.32
2023-08-14T13:33:49.003Z,1015.22
2023-08-14T13:36:15.850Z,1015.26
2023-08-14T13:38:44.029Z,1015.31
2023-08-14T13:41:10.897Z,1015.27
2023-08-14T13:43:37.760Z,1015.30
2023-08-14T13:46:04.614Z,1015.38
2023-08-14T13:48:31.548Z,1015.31
2023-08-14T13:50:58.954Z,1015.33
2023-08-14T13:53:25.784Z,1015.23
2023-08-14T13:55:54.114Z,1015.24
2023-08-14T13:58:21.120Z,1015.22
2023-08-14T14:00:47.949Z,1015.25
2023-08-14T14:03:14.841Z,1015.39
2023-08-14T14:05:42.031Z,1015.26
2023-08-14T14:08:09.467Z,1015.40
2023-08-14T14:10:36.281Z,1015.38
2023-08-14T14:13:04.787Z,1015.40
2023-08-14T14:15:31.688Z,1015.45
2023-08-14T14:18:01.650Z,1015.42
2023-08-14T14:20:28.607Z,1015.40
2023-08-14T14:22:55.527Z,1015.48
2023-08-14T14:25:22.300Z,1015.40
2023-08-14T14:27:49.223Z,1015.44
2023-08-14T14:30:17.678Z,1015.39
2023-08-14T14:32:44.464Z,1015.30
2023-08-14T14:35:11.331Z,1015.41
2023-08-14T14:37:38.190Z,1015.44
2023-08-14T14:40:05.616Z,1015.35
2023-08-14T14:42:32.413Z,1015.41
2023-08-14T14:44:59.166Z,1015.37
2023-08-14T14:47:27.396Z,1015.41
2023-08-14T14:49:54.248Z,1015.41
2023-08-14T14:52:21.198Z,1015.43
2023-08-14T14:54:48.075Z,1015.44
2023-08-14T14:57:15.134Z,1015.47
2023-08-14T14:59:42.182Z,1015.43
2023-08-14T15:02:19.174Z,1015.44
2023-08-14T15:04:52.129Z,1015.50
2023-08-14T15:07:19.191Z,1015.46
2023-08-14T15:09:46.077Z,1015.51
2023-08-14T15:12:13.058Z,1015.39
2023-08-14T15:14:39.858Z,1015.44
2023-08-14T15:17:06.720Z,1015.49
2023-08-14T15:19:33.528Z,1015.47
2023-08-14T15:22:01.782Z,1015.48
2023-08-14T15:24:28.659Z,1015.55
2023-08-14T15:26:55.546Z,1015.55
2023-08-14T15:29:22.373Z,1015.56
2023-08-14T15:31:49.353Z,1015.60
2023-08-14T15:34:16.160Z,1015.67
2023-08-14T15:36:43.005Z,1015.74
2023-08-14T15:39:11.205Z,1015.62
2023-08-14T15:41:38.000Z,1015.72
2023-08-14T15:44:07.715Z,1015.75
2023-08-14T15:46:35.808Z,1015.79
2023-08-14T15:49:02.596Z,1015.86
2023-08-14T15:51:29.506Z,1015.87
2023-08-14T15:53:56.440Z,1015.89
2023-08-14T15:56:24.644Z,1015.98
2023-08-14T15:58:51.513Z,1016.08
2023-08-14T16:01:18.399Z,1016.06
2023-08-14T16:03:45.363Z,1016.15
2023-08-14T16:06:12.405Z,1016.11
2023-08-14T16:08:39.213Z,1016.10
2023-08-14T16:11:06.053Z,1016.13
2023-08-14T16:13:34.558Z,1016.18
2023-08-14T16:16:01.400Z,1016.28
2023-08-14T16:18:28.221Z,1016.26
2023-08-14T16:20:55.091Z,1016.38
2023-08-14T16:23:22.054Z,1016.33
2023-08-14T16:25:48.827Z,1016.43
2023-08-14T16:28:15.683Z,1016.36
2023-08-14T16:30:44.058Z,1016.42
2023-08-14T16:33:10.950Z,1016.43
2023-08-14T16:35:37.748Z,1016.41
2023-08-14T16:38:04.824Z,1016.47
2023-08-14T16:40:31.659Z,1016.56
2023-08-14T16:42:58.519Z,1016.57
2023-08-14T16:45:25.563Z,1016.57
2023-08-14T16:47:53.830Z,1016.63
2023-08-14T16:50:20.666Z,1016.70
2023-08-14T16:52:47.509Z,1016.82
2023-08-14T16:55:14.606Z,1016.81
2023-08-14T16:57:41.510Z,1016.77
2023-08-14T17:00:09.950Z,1016.85
2023-08-14T17:02:39.622Z,1016.81
2023-08-14T17:05:08.831Z,1016.86
2023-08-14T17:07:35.657Z,1016.93
2023-08-14T17:10:02.461Z,1016.95
2023-08-14T17:12:29.360Z,1017.02
2023-08-14T17:14:58.387Z,1016.97
2023-08-14T17:17:25.367Z,1016.98
2023-08-14T17:19:52.215Z,1017.01
2023-08-14T17:22:20.418Z,1017.06
2023-08-14T17:24:47.322Z,1017.09
2023-08-14T17:27:14.155Z,1017.16
2023-08-14T17:29:40.996Z,1017.22
2023-08-14T17:32:08.004Z,1017.32
2023-08-14T17:34:34.864Z,1017.38
2023-08-14T17:37:01.891Z,1017.40
2023-08-14T17:39:30.128Z,1017.60
2023-08-14T17:41:56.929Z,1017.60
2023-08-14T17:44:23.833Z,1017.84
2023-08-14T17:46:50.631Z,1017.95
2023-08-14T17:49:17.490Z,1018.02
2023-08-14T17:51:44.601Z,1018.04
2023-08-14T17:54:11.415Z,1018.21
2023-08-14T17:56:39.707Z,1018.28
2023-08-14T17:59:06.556Z,1018.33
2023-08-14T18:01:33.871Z,1018.49
2023-08-14T18:04:01.222Z,1018.48
2023-08-14T18:06:28.163Z,1018.69
2023-08-14T18:08:55.013Z,1018.75
2023-08-14T18:11:21.919Z,1018.79
2023-08-14T18:13:50.174Z,1018.85
2023-08-14T18:16:17.129Z,1018.96
2023-08-14T18:18:44.052Z,1018.97
2023-08-14T18:21:12.081Z,1019.00
2023-08-14T18:23:40.056Z,1019.09
2023-08-14T18:26:07.336Z,1019.13
2023-08-14T18:28:34.126Z,1019.08
2023-08-14T18:31:02.396Z,1019.27
2023-08-14T18:33:30.170Z,1019.24
2023-08-14T18:35:57.074Z,1019.33
2023-08-14T18:38:23.876Z,1019.36
2023-08-14T18:40:50.713Z,1019.44
2023-08-14T18:43:17.541Z,1019.59
2023-08-14T18:45:44.365Z,1019.59
2023-08-14T18:48:12.665Z,1019.72
2023-08-14T18:50:39.521Z,1019.70
2023-08-14T18:53:06.966Z,1019.69
2023-08-14T18:55:37.217Z,1019.78
2023-08-14T18:58:04.461Z,1019.81
2023-08-14T19:00:31.305Z,1019.92
2023-08-14T19:02:58.209Z,1019.97
2023-08-14T19:05:26.532Z,1019.94
2023-08-14T19:07:53.374Z,1019.90
2023-08-14T19:10:20.312Z,1019.91
2023-08-14T19:12:47.149Z,1019.96
2023-08-14T19:15:13.937Z,1019.99
2023-08-14T19:17:40.723Z,1019.93
2023-08-14T19:20:08.385Z,1019.93
2023-08-14T19:22:36.603Z,1020.01
2023-08-14T19:25:03.532Z,1020.15
2023-08-14T19:27:30.345Z,1020.12
2023-08-14T19:29:57.105Z,1020.38
2023-08-14T19:32:23.912Z,1020.38
2023-08-14T19:34:50.755Z,1020.32
2023-08-14T19:37:17.815Z,1020.36
2023-08-14T19:39:46.203Z,1020.31
2023-08-14T19:42:13.033Z,1020.33
2023-08-14T19:44:39.898Z,1020.34
2023-08-14T19:47:06.878Z,1020.36
2023-08-14T19:49:33.667Z,1020.36
2023-08-14T19:52:00.531Z,1020.39
2023-08-14T19:54:27.570Z,1020.44
2023-08-14T19:56:55.758Z,1020.47
2023-08-14T19:59:22.972Z,1020.49
2023-08-14T20:01:49.985Z,1020.61
2023-08-14T20:04:16.924Z,1020.54
2023-08-14T20:06:44.312Z,1020.72
2023-08-14T20:09:11.261Z,1020.70
2023-08-14T20:11:38.225Z,1020.73
2023-08-14T20:14:07.560Z,1020.79
2023-08-14T20:16:34.504Z,1020.75
2023-08-14T20:19:01.458Z,1020.81
2023-08-14T20:21:28.401Z,1020.87
2023-08-14T20:23:55.225Z,1020.89
2023-08-14T20:26:22.118Z,1021.00
2023-08-14T20:28:49.135Z,1021.08
2023-08-14T20:31:21.261Z,1021.14
2023-08-14T20:33:48.630Z,1021.09
2023-08-14T20:36:19.400Z,1021.02
2023-08-14T20:38:46.240Z,1021.00
2023-08-14T20:41:13.167Z,1021.11
2023-08-14T20:43:40.086Z,1021.09
2023-08-14T20:46:06.938Z,1021.16
2023-08-14T20:48:35.112Z,1021.21
2023-08-14T20:51:02.018Z,1021.20
2023-08-14T20:53:28.880Z,1021.19
2023-08-14T20:55:56.886Z,1021.32
2023-08-14T20:58:23.890Z,1021.31
2023-08-14T21:00:50.820Z,1021.40
2023-08-14T21:03:17.857Z,1021.45
2023-08-14T21:05:47.149Z,1021.43
2023-08-14T21:08:14.237Z,1021.48
2023-08-14T21:10:41.600Z,1021.42
2023-08-14T21:13:09.091Z,1021.41
2023-08-14T21:15:36.347Z,1021.42
2023-08-14T21:18:03.982Z,1021.36
2023-08-14T21:20:31.009Z,1021.37
2023-08-14T21:22:59.223Z,1021.44
2023-08-14T21:25:26.168Z,1021.45
2023-08-14T21:27:53.803Z,1021.49
2023-08-14T21:30:20.724Z,1021.45
2023-08-14T21:32:47.588Z,1021.41
2023-08-14T21:35:14.441Z,1021.45
2023-08-14T21:37:41.275Z,1021.43
2023-08-14T21:40:09.980Z,1021.46
2023-08-14T21:42:36.945Z,1021.51
2023-08-14T21:45:04.149Z,1021.56
2023-08-14T21:47:31.019Z,1021.55
2023-08-14T21:49:57.839Z,1021.57
2023-08-14T21:52:24.784Z,1021.68
2023-08-14T21:54:52.592Z,1021.61
2023-08-14T21:57:21.004Z,1021.63
2023-08-14T21:59:47.999Z,1021.64
2023-08-14T22:02:14.961Z,1021.61
2023-08-14T22:04:41.790Z,1021.65
2023-08-14T22:07:08.772Z,1021.72
2023-08-14T22:09:35.612Z,1021.64
2023-08-14T22:12:02.574Z,1021.67
2023-08-14T22:14:31.707Z,1021.65
2023-08-14T22:16:58.617Z,1021.70
2023-08-14T22:19:25.555Z,1021.62
2023-08-14T22:21:52.505Z,1021.56
2023-08-14T22:24:38.488Z,1021.54
2023-08-14T22:27:15.849Z,1021.44
2023-08-14T22:29:44.126Z,1021.58
2023-08-14T22:32:11.014Z,1021.47
2023-08-14T22:34:37.896Z,1021.55
2023-08-14T22:37:04.739Z,1021.60
2023-08-14T22:39:32.109Z,1021.58
2023-08-14T22:41:59.236Z,1021.58
2023-08-14T22:44:26.095Z,1021.57
2023-08-14T22:46:54.340Z,1021.62
2023-08-14T22:49:21.102Z,1021.61
2023-08-14T22:51:47.970Z,1021.78
2023-08-14T22:54:14.880Z,1021.74
2023-08-14T22:56:41.747Z,1021.85
2023-08-14T22:59:08.585Z,1021.77
2023-08-14T23:01:35.441Z,1021.82
2023-08-14T23:04:04.264Z,1021.88
2023-08-14T23:06:31.133Z,1021.87
2023-08-14T23:08:57.988Z,1021.89
2023-08-14T23:11:24.818Z,1021.96
2023-08-14T23:13:51.662Z,1021.89
2023-08-14T23:16:18.527Z,1021.87
2023-08-14T23:18:45.394Z,1021.84
2023-08-14T23:21:13.788Z,1021.89
2023-08-14T23:23:40.661Z,1021.99
2023-08-14T23:26:07.548Z,1022.07
2023-08-14T23:28:34.485Z,1022.06
2023-08-14T23:31:01.655Z,1022.04
2023-08-14T23:33:28.559Z,1022.08
2023-08-14T23:35:55.405Z,1022.10
2023-08-14T23:38:23.655Z,1022.04
2023-08-14T23:40:50.596Z,1022.11
2023-08-14T23:43:17.447Z,1022.05
2023-08-14T23:45:44.925Z,1022.13
2023-08-14T23:48:11.838Z,1022.15
2023-08-14T23:50:38.703Z,1022.17
2023-08-14T23:53:05.549Z,1022.19
2023-08-14T23:55:33.744Z,1022.24
2023-08-14T23:58:00.788Z,1022.30
